createdAt,value
2019-03-17T00:01:22.994Z,2.20
2019-03-17T00:03:53.349Z,2.10
2019-03-17T00:06:23.722Z,2.10
2019-03-17T00:08:54.296Z,2.10
2019-03-17T00:11:24.521Z,2.10
2019-03-17T00:13:54.861Z,2.10
2019-03-17T00:16:25.492Z,2.00
2019-03-17T00:18:56.049Z,2.00
2019-03-17T00:21:26.413Z,2.00
2019-03-17T00:23:56.683Z,2.00
2019-03-17T00:26:27.046Z,2.00
2019-03-17T00:28:57.233Z,2.00
2019-03-17T00:31:27.556Z,2.00
2019-03-17T00:33:57.845Z,2.00
2019-03-17T00:36:28.214Z,2.00
2019-03-17T00:38:58.575Z,2.00
2019-03-17T00:41:31.519Z,2.00
2019-03-17T00:44:00.728Z,2.00
2019-03-17T00:46:31.009Z,2.00
2019-03-17T00:49:01.269Z,2.00
2019-03-17T00:51:31.793Z,2.00
2019-03-17T00:54:02.161Z,2.00
2019-03-17T00:56:32.442Z,2.00
2019-03-17T00:59:02.735Z,2.00
2019-03-17T01:01:33.017Z,2.10
2019-03-17T01:04:03.289Z,2.10
2019-03-17T01:06:33.721Z,2.10
2019-03-17T01:09:05.253Z,2.10
2019-03-17T01:11:35.629Z,2.10
2019-03-17T01:14:05.986Z,2.20
2019-03-17T01:16:36.386Z,2.10
2019-03-17T01:19:06.832Z,2.10
2019-03-17T01:21:37.186Z,2.20
2019-03-17T01:24:10.276Z,2.20
2019-03-17T01:26:40.082Z,2.20
2019-03-17T01:29:10.432Z,2.20
2019-03-17T01:31:40.796Z,2.20
2019-03-17T01:34:11.095Z,2.20
2019-03-17T01:36:41.459Z,2.20
2019-03-17T01:39:11.753Z,2.20
2019-03-17T01:41:42.234Z,2.20
2019-03-17T01:44:12.597Z,2.20
2019-03-17T01:46:42.911Z,2.20
2019-03-17T01:49:13.283Z,2.30
2019-03-17T01:51:45.317Z,2.30
2019-03-17T01:54:15.617Z,2.30
2019-03-17T01:56:45.897Z,2.30
2019-03-17T01:59:16.272Z,2.30
2019-03-17T02:01:47.122Z,2.30
2019-03-17T02:04:17.790Z,2.40
2019-03-17T02:06:49.042Z,2.40
2019-03-17T02:09:19.266Z,2.40
2019-03-17T02:11:49.583Z,2.40
2019-03-17T02:14:20.078Z,2.40
2019-03-17T02:16:50.517Z,2.40
2019-03-17T02:19:20.945Z,2.50
2019-03-17T02:21:51.493Z,2.40
2019-03-17T02:24:21.949Z,2.40
2019-03-17T02:26:55.236Z,2.50
2019-03-17T02:29:26.049Z,2.50
2019-03-17T02:31:56.526Z,2.50
2019-03-17T02:34:27.100Z,2.50
2019-03-17T02:36:57.753Z,2.50
2019-03-17T02:39:27.987Z,2.50
2019-03-17T02:41:58.319Z,2.50
2019-03-17T02:44:28.891Z,2.50
2019-03-17T02:46:59.408Z,2.60
2019-03-17T02:49:29.783Z,2.60
2019-03-17T02:52:00.326Z,2.60
2019-03-17T02:54:31.289Z,2.60
2019-03-17T02:57:01.656Z,2.60
2019-03-17T02:59:31.937Z,2.60
2019-03-17T03:02:02.103Z,2.60
2019-03-17T03:04:32.657Z,2.60
2019-03-17T03:07:03.163Z,2.60
2019-03-17T03:09:33.539Z,2.60
2019-03-17T03:12:03.969Z,2.70
2019-03-17T03:14:34.316Z,2.70
2019-03-17T03:17:04.765Z,2.70
2019-03-17T03:19:35.059Z,2.70
2019-03-17T03:22:05.522Z,2.70
2019-03-17T03:24:35.809Z,2.70
2019-03-17T03:27:06.099Z,2.70
2019-03-17T03:29:36.765Z,2.60
2019-03-17T03:32:07.543Z,2.70
2019-03-17T03:34:38.120Z,2.70
2019-03-17T03:37:08.410Z,2.70
2019-03-17T03:39:38.722Z,2.70
2019-03-17T03:42:09.172Z,2.70
2019-03-17T03:44:39.610Z,2.70
2019-03-17T03:47:10.153Z,2.70
2019-03-17T03:49:40.677Z,2.70
2019-03-17T03:52:10.886Z,2.70
2019-03-17T03:54:41.291Z,2.80
2019-03-17T03:57:11.846Z,2.80
2019-03-17T03:59:42.405Z,2.80
2019-03-17T04:02:12.763Z,2.80
2019-03-17T04:04:43.357Z,2.80
2019-03-17T04:07:13.654Z,2.80
2019-03-17T04:09:44.028Z,2.80
2019-03-17T04:12:14.298Z,2.80
2019-03-17T04:14:44.664Z,2.80
2019-03-17T04:17:15.019Z,2.90
2019-03-17T04:19:45.583Z,2.90
2019-03-17T04:22:16.249Z,2.90
2019-03-17T04:24:46.404Z,2.90
2019-03-17T04:27:16.881Z,2.90
2019-03-17T04:29:47.130Z,2.90
2019-03-17T04:32:17.467Z,3.00
2019-03-17T04:34:48.064Z,3.00
2019-03-17T04:37:18.785Z,3.00
2019-03-17T04:39:49.424Z,3.00
2019-03-17T04:42:19.931Z,3.00
2019-03-17T04:44:52.256Z,3.00
2019-03-17T04:47:22.591Z,3.00
2019-03-17T04:49:52.945Z,3.00
2019-03-17T04:52:23.512Z,3.00
2019-03-17T04:54:53.978Z,3.00
2019-03-17T04:57:24.208Z,3.00
2019-03-17T04:59:54.632Z,3.00
2019-03-17T05:02:25.105Z,3.00
2019-03-17T05:04:55.664Z,3.00
2019-03-17T05:07:26.577Z,3.00
2019-03-17T05:09:56.883Z,3.00
2019-03-17T05:12:27.242Z,3.10
2019-03-17T05:14:57.709Z,3.10
2019-03-17T05:17:28.002Z,3.10
2019-03-17T05:19:58.726Z,3.10
2019-03-17T05:22:29.277Z,3.20
2019-03-17T05:24:59.939Z,3.20
2019-03-17T05:27:30.325Z,3.20
2019-03-17T05:30:00.735Z,3.30
2019-03-17T05:32:31.356Z,3.30
2019-03-17T05:35:01.802Z,3.30
2019-03-17T05:37:32.476Z,3.30
2019-03-17T05:40:03.419Z,3.30
2019-03-17T05:42:33.989Z,3.30
2019-03-17T05:45:05.467Z,3.40
2019-03-17T05:47:35.963Z,3.40
2019-03-17T05:50:08.256Z,3.40
2019-03-17T05:52:38.732Z,3.40
2019-03-17T05:55:10.212Z,3.40
2019-03-17T05:57:40.796Z,3.40
2019-03-17T06:00:14.191Z,3.40
2019-03-17T06:02:44.826Z,3.40
2019-03-17T06:05:16.432Z,3.40
2019-03-17T06:07:46.965Z,3.40
2019-03-17T06:10:17.562Z,3.40
2019-03-17T06:12:47.925Z,3.40
2019-03-17T06:15:18.482Z,3.50
2019-03-17T06:17:49.346Z,3.50
2019-03-17T06:20:19.928Z,3.40
2019-03-17T06:22:50.775Z,3.40
2019-03-17T06:25:21.464Z,3.40
2019-03-17T06:27:52.039Z,3.40
2019-03-17T06:30:22.536Z,3.40
2019-03-17T06:32:52.997Z,3.40
2019-03-17T06:35:23.724Z,3.40
2019-03-17T06:37:54.349Z,3.40
2019-03-17T06:40:25.128Z,3.40
2019-03-17T06:42:55.730Z,3.40
2019-03-17T06:45:26.295Z,3.40
2019-03-17T06:47:56.895Z,3.30
2019-03-17T06:50:27.516Z,3.30
2019-03-17T06:52:57.995Z,3.30
2019-03-17T06:55:28.618Z,3.30
2019-03-17T06:57:59.493Z,3.30
2019-03-17T07:00:29.937Z,3.30
2019-03-17T07:03:00.601Z,3.20
2019-03-17T07:05:31.272Z,3.20
2019-03-17T07:08:01.671Z,3.20
2019-03-17T07:10:32.332Z,3.20
2019-03-17T07:13:02.823Z,3.10
2019-03-17T07:15:33.428Z,3.10
2019-03-17T07:18:03.944Z,3.10
2019-03-17T07:20:34.440Z,3.10
2019-03-17T07:23:05.027Z,3.10
2019-03-17T07:25:35.652Z,3.00
2019-03-17T07:28:06.296Z,3.00
2019-03-17T07:30:36.769Z,3.00
2019-03-17T07:33:07.245Z,2.90
2019-03-17T07:35:37.977Z,2.80
2019-03-17T07:38:08.493Z,2.80
2019-03-17T07:40:38.917Z,2.80
2019-03-17T07:43:09.162Z,2.70
2019-03-17T07:45:39.823Z,2.70
2019-03-17T07:48:10.226Z,2.70
2019-03-17T07:50:40.695Z,2.60
2019-03-17T07:53:11.358Z,2.60
2019-03-17T07:55:41.791Z,2.60
2019-03-17T07:58:12.266Z,2.60
2019-03-17T08:00:42.842Z,2.50
2019-03-17T08:03:13.571Z,2.50
2019-03-17T08:05:45.795Z,2.40
2019-03-17T08:08:16.515Z,2.40
2019-03-17T08:10:46.923Z,2.40
2019-03-17T08:13:17.282Z,2.40
2019-03-17T08:15:47.630Z,2.40
2019-03-17T08:18:18.106Z,2.30
2019-03-17T08:20:49.089Z,2.30
2019-03-17T08:23:19.610Z,2.30
2019-03-17T08:25:50.069Z,2.30
2019-03-17T08:28:20.756Z,2.30
2019-03-17T08:30:53.378Z,2.20
2019-03-17T08:33:23.854Z,2.20
2019-03-17T08:35:54.132Z,2.20
2019-03-17T08:38:24.706Z,2.20
2019-03-17T08:40:55.836Z,2.20
2019-03-17T08:43:26.330Z,2.20
2019-03-17T08:45:56.682Z,2.20
2019-03-17T08:48:27.111Z,2.20
2019-03-17T08:50:57.498Z,2.20
2019-03-17T08:53:27.892Z,2.20
2019-03-17T08:55:58.371Z,2.20
2019-03-17T08:58:28.665Z,2.20
2019-03-17T09:00:58.968Z,2.20
2019-03-17T09:03:29.212Z,2.20
2019-03-17T09:05:59.577Z,2.20
2019-03-17T09:08:34.884Z,2.20
2019-03-17T09:11:02.068Z,2.20
2019-03-17T09:13:32.431Z,2.20
2019-03-17T09:16:04.500Z,2.20
2019-03-17T09:18:36.435Z,2.20
2019-03-17T09:21:08.547Z,2.20
2019-03-17T09:23:38.895Z,2.20
2019-03-17T09:26:09.495Z,2.20
2019-03-17T09:28:40.045Z,2.30
2019-03-17T09:31:12.976Z,2.30
2019-03-17T09:33:42.686Z,2.40
2019-03-17T09:36:13.249Z,2.40
2019-03-17T09:38:47.457Z,2.50
2019-03-17T09:41:15.939Z,2.50
2019-03-17T09:43:46.249Z,2.60
2019-03-17T09:46:16.858Z,2.70
2019-03-17T09:48:47.329Z,2.70
2019-03-17T09:51:17.770Z,2.80
2019-03-17T09:53:48.418Z,2.80
2019-03-17T09:56:19.015Z,2.90
2019-03-17T09:58:49.586Z,2.90
2019-03-17T10:01:20.113Z,3.00
2019-03-17T10:03:50.525Z,3.10
2019-03-17T10:06:21.211Z,3.10
2019-03-17T10:08:59.991Z,3.20
2019-03-17T10:11:24.157Z,3.20
2019-03-17T10:13:54.664Z,3.30
2019-03-17T10:16:25.329Z,3.30
2019-03-17T10:18:55.604Z,3.30
2019-03-17T10:21:26.015Z,3.40
2019-03-17T10:23:56.782Z,3.50
2019-03-17T10:26:27.619Z,3.50
2019-03-17T10:28:58.338Z,3.60
2019-03-17T10:31:29.064Z,3.60
2019-03-17T10:33:59.732Z,3.60
2019-03-17T10:36:30.204Z,3.70
2019-03-17T10:39:11.854Z,3.70
2019-03-17T10:41:32.786Z,3.80
2019-03-17T10:44:03.458Z,3.80
2019-03-17T10:46:34.017Z,3.90
2019-03-17T10:49:04.684Z,3.90
2019-03-17T10:51:35.361Z,4.00
2019-03-17T10:54:05.895Z,4.00
2019-03-17T10:56:36.345Z,4.10
2019-03-17T10:59:06.929Z,4.10
2019-03-17T11:01:37.291Z,4.20
2019-03-17T11:04:07.857Z,4.20
2019-03-17T11:06:38.528Z,4.30
2019-03-17T11:09:09.293Z,4.30
2019-03-17T11:11:39.705Z,4.40
2019-03-17T11:14:10.331Z,4.40
2019-03-17T11:16:40.791Z,4.40
2019-03-17T11:19:11.286Z,4.50
2019-03-17T11:21:41.794Z,4.50
2019-03-17T11:24:12.142Z,4.50
2019-03-17T11:26:42.516Z,4.60
2019-03-17T11:29:13.056Z,4.60
2019-03-17T11:31:43.414Z,4.70
2019-03-17T11:34:13.953Z,4.70
2019-03-17T11:36:44.412Z,4.80
2019-03-17T11:39:15.127Z,4.90
2019-03-17T11:41:45.706Z,4.90
2019-03-17T11:44:16.270Z,4.90
2019-03-17T11:46:46.980Z,4.90
2019-03-17T11:49:17.373Z,5.00
2019-03-17T11:51:49.205Z,5.00
2019-03-17T11:54:19.648Z,5.10
2019-03-17T11:56:50.415Z,5.10
2019-03-17T11:59:20.869Z,5.20
2019-03-17T12:01:51.534Z,5.20
2019-03-17T12:04:22.097Z,5.20
2019-03-17T12:06:52.716Z,5.20
2019-03-17T12:09:29.082Z,5.20
2019-03-17T12:11:55.325Z,5.30
2019-03-17T12:14:26.045Z,5.30
2019-03-17T12:16:56.609Z,5.40
2019-03-17T12:19:27.077Z,5.40
2019-03-17T12:22:08.555Z,5.40
2019-03-17T12:24:29.790Z,5.40
2019-03-17T12:27:00.542Z,5.50
2019-03-17T12:29:31.104Z,5.50
2019-03-17T12:32:01.571Z,5.60
2019-03-17T12:34:32.250Z,5.60
2019-03-17T12:37:02.763Z,5.60
2019-03-17T12:39:33.441Z,5.60
2019-03-17T12:42:03.909Z,5.60
2019-03-17T12:44:34.457Z,5.70
2019-03-17T12:47:05.052Z,5.70
2019-03-17T12:49:35.388Z,5.70
2019-03-17T12:52:05.845Z,5.80
2019-03-17T12:54:36.310Z,5.80
2019-03-17T12:57:07.239Z,5.90
2019-03-17T12:59:37.934Z,5.90
2019-03-17T13:02:08.703Z,5.90
2019-03-17T13:04:39.334Z,6.00
2019-03-17T13:07:10.026Z,6.00
2019-03-17T13:09:40.453Z,6.10
2019-03-17T13:12:10.912Z,6.10
2019-03-17T13:14:41.474Z,6.10
2019-03-17T13:17:12.307Z,6.10
2019-03-17T13:19:42.867Z,6.20
2019-03-17T13:22:13.487Z,6.20
2019-03-17T13:24:44.072Z,6.20
2019-03-17T13:27:14.524Z,6.20
2019-03-17T13:29:49.860Z,6.20
2019-03-17T13:32:20.555Z,6.20
2019-03-17T13:34:50.936Z,6.20
2019-03-17T13:37:21.359Z,6.20
2019-03-17T13:39:52.065Z,6.10
2019-03-17T13:42:22.577Z,6.00
2019-03-17T13:44:53.462Z,6.10
2019-03-17T13:47:24.217Z,6.10
2019-03-17T13:49:54.721Z,6.00
2019-03-17T13:52:25.240Z,6.00
2019-03-17T13:54:56.041Z,6.00
2019-03-17T13:57:26.617Z,6.00
2019-03-17T13:59:57.018Z,6.00
2019-03-17T14:02:27.522Z,6.00
2019-03-17T14:04:57.906Z,6.00
2019-03-17T14:07:28.553Z,6.00
2019-03-17T14:09:58.828Z,6.00
2019-03-17T14:12:29.385Z,6.10
2019-03-17T14:15:00.250Z,6.10
2019-03-17T14:17:30.880Z,6.10
2019-03-17T14:20:01.484Z,6.10
2019-03-17T14:22:31.969Z,6.10
2019-03-17T14:25:02.508Z,6.10
2019-03-17T14:27:33.167Z,6.10
2019-03-17T14:30:04.829Z,6.10
2019-03-17T14:32:35.329Z,6.10
2019-03-17T14:35:06.912Z,6.10
2019-03-17T14:37:37.395Z,6.10
2019-03-17T14:40:13.325Z,6.10
2019-03-17T14:42:47.121Z,6.10
2019-03-17T14:45:18.380Z,6.10
2019-03-17T14:47:50.739Z,6.00
2019-03-17T14:50:23.689Z,6.10
2019-03-17T14:52:54.343Z,6.10
2019-03-17T14:55:24.812Z,6.10
2019-03-17T14:57:55.363Z,6.10
2019-03-17T15:00:25.853Z,6.00
2019-03-17T15:02:56.875Z,6.10
2019-03-17T15:05:27.604Z,6.00
2019-03-17T15:07:58.129Z,6.10
2019-03-17T15:10:28.832Z,6.10
2019-03-17T15:12:59.670Z,6.10
2019-03-17T15:15:30.066Z,6.10
2019-03-17T15:18:00.634Z,6.00
2019-03-17T15:20:31.251Z,6.00
2019-03-17T15:23:01.624Z,6.10
2019-03-17T15:25:32.345Z,6.00
2019-03-17T15:28:02.970Z,6.00
2019-03-17T15:30:34.968Z,6.00
2019-03-17T15:33:05.533Z,6.00
2019-03-17T15:35:36.160Z,6.00
2019-03-17T15:38:06.834Z,6.00
2019-03-17T15:40:37.350Z,6.00
2019-03-17T15:43:07.961Z,5.90
2019-03-17T15:45:42.032Z,5.90
2019-03-17T15:48:12.238Z,5.90
2019-03-17T15:50:42.772Z,5.90
2019-03-17T15:53:13.473Z,5.90
2019-03-17T15:55:44.048Z,5.90
2019-03-17T15:58:14.643Z,5.90
2019-03-17T16:00:45.132Z,5.90
2019-03-17T16:03:15.543Z,5.90
2019-03-17T16:05:46.127Z,5.90
2019-03-17T16:08:16.601Z,5.90
2019-03-17T16:10:47.336Z,5.90
2019-03-17T16:13:17.813Z,5.80
2019-03-17T16:15:48.295Z,5.80
2019-03-17T16:18:18.707Z,5.80
2019-03-17T16:20:48.993Z,5.70
2019-03-17T16:23:19.303Z,5.70
2019-03-17T16:25:50.664Z,5.70
2019-03-17T16:28:21.198Z,5.60
2019-03-17T16:30:51.730Z,5.60
2019-03-17T16:33:22.088Z,5.50
2019-03-17T16:35:53.058Z,5.50
2019-03-17T16:38:23.814Z,5.40
2019-03-17T16:40:54.460Z,5.40
2019-03-17T16:43:24.925Z,5.40
2019-03-17T16:45:55.555Z,5.30
2019-03-17T16:48:26.216Z,5.30
2019-03-17T16:50:56.649Z,5.20
2019-03-17T16:53:27.205Z,5.20
2019-03-17T16:55:57.716Z,5.20
2019-03-17T16:58:27.977Z,5.10
2019-03-17T17:00:58.393Z,5.10
2019-03-17T17:03:28.840Z,5.10
2019-03-17T17:05:59.195Z,5.10
2019-03-17T17:08:29.541Z,5.10
2019-03-17T17:11:00.719Z,5.00
2019-03-17T17:13:31.602Z,5.00
2019-03-17T17:16:02.440Z,5.00
2019-03-17T17:18:33.000Z,4.90
2019-03-17T17:21:03.401Z,4.90
2019-03-17T17:23:34.041Z,4.90
2019-03-17T17:26:04.702Z,4.90
2019-03-17T17:28:35.245Z,4.80
2019-03-17T17:31:07.373Z,4.90
2019-03-17T17:33:37.915Z,4.80
2019-03-17T17:36:08.480Z,4.80
2019-03-17T17:38:38.868Z,4.80
2019-03-17T17:41:11.306Z,4.80
2019-03-17T17:43:41.505Z,4.70
2019-03-17T17:46:12.159Z,4.70
2019-03-17T17:48:42.613Z,4.60
2019-03-17T17:51:13.260Z,4.60
2019-03-17T17:53:43.679Z,4.60
2019-03-17T17:56:14.119Z,4.60
2019-03-17T17:58:44.493Z,4.60
2019-03-17T18:01:14.709Z,4.60
2019-03-17T18:03:51.533Z,4.60
2019-03-17T18:06:17.189Z,4.50
2019-03-17T18:08:47.584Z,4.50
2019-03-17T18:11:17.870Z,4.50
2019-03-17T18:13:48.314Z,4.50
2019-03-17T18:16:18.693Z,4.50
2019-03-17T18:18:49.170Z,4.50
2019-03-17T18:21:19.445Z,4.40
2019-03-17T18:23:49.777Z,4.40
2019-03-17T18:26:20.073Z,4.40
2019-03-17T18:28:50.538Z,4.40
2019-03-17T18:31:20.817Z,4.40
2019-03-17T18:33:51.054Z,4.40
2019-03-17T18:36:21.346Z,4.40
2019-03-17T18:38:51.817Z,4.40
2019-03-17T18:41:22.280Z,4.40
2019-03-17T18:43:52.653Z,4.50
2019-03-17T18:46:22.995Z,4.50
2019-03-17T18:48:53.422Z,4.60
2019-03-17T18:51:25.252Z,4.50
2019-03-17T18:53:55.973Z,4.50
2019-03-17T18:56:26.276Z,4.50
2019-03-17T18:58:56.495Z,4.50
2019-03-17T19:01:26.945Z,4.50
2019-03-17T19:03:57.314Z,4.40
2019-03-17T19:06:27.693Z,4.40
2019-03-17T19:08:58.074Z,4.40
2019-03-17T19:11:28.416Z,4.40
2019-03-17T19:13:58.824Z,4.40
2019-03-17T19:16:29.228Z,4.40
2019-03-17T19:18:59.747Z,4.30
2019-03-17T19:21:30.238Z,4.30
2019-03-17T19:24:00.616Z,4.40
2019-03-17T19:26:31.274Z,4.30
2019-03-17T19:29:01.667Z,4.30
2019-03-17T19:31:32.028Z,4.30
2019-03-17T19:34:02.375Z,4.30
2019-03-17T19:36:32.765Z,4.30
2019-03-17T19:39:04.795Z,4.30
2019-03-17T19:41:35.238Z,4.30
2019-03-17T19:44:05.692Z,4.30
2019-03-17T19:46:36.048Z,4.40
2019-03-17T19:49:06.541Z,4.40
2019-03-17T19:51:36.830Z,4.40
2019-03-17T19:54:07.298Z,4.40
2019-03-17T19:56:37.789Z,4.40
2019-03-17T19:59:08.230Z,4.40
2019-03-17T20:01:38.589Z,4.40
2019-03-17T20:04:09.002Z,4.40
2019-03-17T20:06:41.101Z,4.40
2019-03-17T20:09:11.626Z,4.40
2019-03-17T20:11:41.875Z,4.40
2019-03-17T20:14:12.409Z,4.40
2019-03-17T20:16:42.861Z,4.50
2019-03-17T20:19:13.154Z,4.50
2019-03-17T20:21:43.451Z,4.50
2019-03-17T20:24:14.021Z,4.50
2019-03-17T20:26:44.525Z,4.50
2019-03-17T20:29:14.825Z,4.50
2019-03-17T20:31:45.457Z,4.50
2019-03-17T20:34:15.692Z,4.60
2019-03-17T20:36:46.077Z,4.60
2019-03-17T20:39:16.416Z,4.60
2019-03-17T20:41:46.856Z,4.60
2019-03-17T20:44:17.061Z,4.60
2019-03-17T20:46:47.419Z,4.60
2019-03-17T20:49:17.714Z,4.70
2019-03-17T20:51:48.111Z,4.60
2019-03-17T20:54:18.661Z,4.60
2019-03-17T20:56:49.029Z,4.70
2019-03-17T20:59:19.577Z,4.60
2019-03-17T21:01:50.054Z,4.60
2019-03-17T21:04:20.273Z,4.70
2019-03-17T21:06:50.680Z,4.70
2019-03-17T21:09:21.118Z,4.60
2019-03-17T21:11:51.401Z,4.60
2019-03-17T21:14:21.716Z,4.60
2019-03-17T21:16:52.162Z,4.60
2019-03-17T21:19:22.726Z,4.60
2019-03-17T21:21:53.092Z,4.60
2019-03-17T21:24:23.301Z,4.60
2019-03-17T21:26:53.769Z,4.60
2019-03-17T21:29:24.177Z,4.60
2019-03-17T21:31:54.521Z,4.60
2019-03-17T21:34:24.914Z,4.60
2019-03-17T21:36:55.190Z,4.60
2019-03-17T21:39:25.498Z,4.50
2019-03-17T21:41:55.950Z,4.60
2019-03-17T21:44:26.166Z,4.60
2019-03-17T21:46:56.406Z,4.60
2019-03-17T21:49:26.833Z,4.50
2019-03-17T21:51:57.211Z,4.60
2019-03-17T21:54:27.765Z,4.50
2019-03-17T21:56:58.173Z,4.60
2019-03-17T21:59:28.537Z,4.50
2019-03-17T22:01:58.913Z,4.50
2019-03-17T22:04:29.199Z,4.50
2019-03-17T22:06:59.684Z,4.50
2019-03-17T22:09:30.264Z,4.50
2019-03-17T22:12:00.651Z,4.50
2019-03-17T22:14:31.072Z,4.50
2019-03-17T22:17:01.298Z,4.50
2019-03-17T22:19:31.737Z,4.50
2019-03-17T22:22:02.089Z,4.50
2019-03-17T22:24:32.354Z,4.50
2019-03-17T22:27:02.644Z,4.40
2019-03-17T22:29:33.017Z,4.50
2019-03-17T22:32:03.327Z,4.50
2019-03-17T22:34:33.651Z,4.50
2019-03-17T22:37:03.875Z,4.50
2019-03-17T22:39:34.162Z,4.50
2019-03-17T22:42:04.516Z,4.50
2019-03-17T22:44:34.794Z,4.50
2019-03-17T22:47:05.443Z,4.50
2019-03-17T22:49:35.712Z,4.50
2019-03-17T22:52:06.199Z,4.50
2019-03-17T22:54:36.539Z,4.50
2019-03-17T22:57:06.905Z,4.50
2019-03-17T22:59:37.857Z,4.50
2019-03-17T23:02:08.433Z,4.50
2019-03-17T23:04:38.717Z,4.50
2019-03-17T23:07:09.141Z,4.40
2019-03-17T23:09:39.536Z,4.50
2019-03-17T23:12:09.972Z,4.40
2019-03-17T23:14:40.405Z,4.50
2019-03-17T23:17:10.787Z,4.50
2019-03-17T23:19:41.217Z,4.50
2019-03-17T23:22:11.598Z,4.40
2019-03-17T23:24:42.192Z,4.40
2019-03-17T23:27:12.568Z,4.40
2019-03-17T23:29:43.021Z,4.50
2019-03-17T23:32:13.689Z,4.50
2019-03-17T23:34:43.897Z,4.50
2019-03-17T23:37:14.113Z,4.50
2019-03-17T23:39:44.415Z,4.50
2019-03-17T23:42:14.708Z,4.50
2019-03-17T23:44:49.131Z,4.50
2019-03-17T23:47:16.958Z,4.50
2019-03-17T23:49:47.180Z,4.50
2019-03-17T23:52:17.461Z,4.50
2019-03-17T23:54:47.757Z,4.50
2019-03-17T23:57:18.050Z,4.50
2019-03-17T23:59:48.405Z,4.50
